ADDS METAR Data INFO
IDs: Format: Raw Decoded Include TAF

Data at: 1917 UTC 23 Apr 2018

KOXC 231851Z 20009KT 10SM CLR 18/M04 A3043 RMK AO2 SLP318 T01781044
KOXC 231751Z VRB05KT 10SM CLR 17/M05 A3044 RMK AO2 SLP325 T01671050 10167 20083 58015
KOXC 231651Z VRB04KT 9SM CLR 16/M04 A3046 RMK AO2 SLP330 T01611044
KOXC 231551Z VRB03KT 10SM CLR 15/M06 A3048 RMK AO2 SLP335 T01501061
KOXC 231451Z 11007KT 10SM CLR 13/M07 A3049 RMK AO2 SLP339 T01331072 51002
KOXC 231351Z 10008KT 10SM CLR 12/M06 A3048 RMK AO2 SLP338 T01171061
KOXC 231251Z 08007KT 10SM CLR 10/M07 A3049 RMK AO2 SLP339 T01001067
KOXC 231151Z 07006KT 10SM CLR 08/M08 A3048 RMK AO2 SLP336 T00831078 10083 20022 51017
KOXC 231051Z VRB03KT 10SM CLR 06/M08 A3047 RMK AO2 SLP333 T00561078
KOXC 230951Z AUTO 06007KT 10SM CLR 06/M08 A3045 RMK AO2 SLP326 T00611083
KOXC 230851Z AUTO 04007KT 10SM CLR 06/M08 A3043 RMK AO2 SLP320 T00611078 52012
KOXC 230751Z AUTO 05004KT 10SM CLR 04/M04 A3042 RMK AO2 SLP316 T00391039
KOXC 230651Z AUTO 00000KT 10SM CLR 04/M04 A3041 RMK AO2 SLP311 T00391044
KOXC 230551Z AUTO 00000KT 10SM CLR 03/M04 A3039 RMK AO2 SLP307 T00331044 10117 20033 50002
KOXC 230451Z AUTO 00000KT 10SM CLR 06/M04 A3040 RMK AO2 SLP309 T00611044 401610006
KOXC 230351Z AUTO 00000KT 10SM CLR 08/M04 A3039 RMK AO2 SLP306 T00781044
KOXC 230251Z AUTO 24003KT 10SM CLR 08/M04 A3039 RMK AO2 SLP306 T00831039 51018
KOXC 230151Z AUTO 21004KT 10SM CLR 09/M04 A3038 RMK AO2 SLP301 T00891044
KOXC 230051Z 01005KT 10SM CLR 11/M09 A3036 RMK AO2 SLP296 T01111089
KOXC 222351Z 01006KT 10SM CLR 11/M08 A3033 RMK AO2 SLP287 T01061078 10161 20106 53005
KOXC 222251Z 35007KT 10SM CLR 15/M11 A3032 RMK AO2 SLP281 T01501106
KOXC 222151Z 36012KT 10SM CLR 15/M08 A3031 RMK AO2 SLP279 T01501078
KOXC 222051Z VRB06KT 10SM CLR 16/M10 A3032 RMK AO2 SLP283 T01561100 55007
KOXC 221951Z 36011G14KT 10SM CLR 16/M08 A3032 RMK AO2 SLP282 T01561078
KOXC 221851Z 34013G19KT 10SM CLR 15/M09 A3034 RMK AO2 SLP289 T01501094
KOXC 221751Z 35016G23KT 10SM CLR 14/M09 A3034 RMK AO2 SLP290 T01441089 10144 20061 58015
KOXC 221651Z 32012G17KT 280V340 10SM CLR 14/M08 A3036 RMK AO2 SLP297 T01391083
KOXC 221551Z 31010G16KT 10SM CLR 13/M09 A3038 RMK AO2 SLP302 T01281094
KOXC 221451Z 31010KT 10SM CLR 12/M08 A3039 RMK AO2 SLP304 T01171078 58001
KOXC 221351Z VRB06KT 10SM CLR 10/M07 A3039 RMK AO2 SLP306 T01001067
KOXC 221251Z COR 33009KT 10SM CLR 08/M06 A3039 RMK AO2 SLP308 T00831061 $
KOXC 221151Z 33007KT 10SM CLR 06/M06 A3039 RMK AO2 SLP305 T00611061 10061 20006 53012
KOXC 221051Z 31004KT 10SM CLR 04/M07 A3038 RMK AO2 SLP302 T00391072
KOXC 220951Z AUTO 34004KT 10SM CLR 02/M07 A3036 RMK AO2 SLP297 T00171072 FZRANO TSNO
KOXC 220851Z AUTO 33007KT 10SM CLR 04/M07 A3035 RMK AO2 SLP293 T00441072 50003
KOXC 220751Z AUTO 33006KT 10SM CLR 04/M07 A3035 RMK AO2 SLP293 T00441072